Time;durP1;ratioP1;P1;durP2;ratioP2;P2;SDS_P1;SDS_P2;PMS_P1;PMS_P2;Temp;Humidity;BMP_temperature;BMP_pressure;BME280_temperature;BME280_humidity;BME280_pressure;Samples;Min_cycle;Max_cycle;Signal;HPM_P1;HPM_P2
2021/10/06 00:01:40;;;;;;;0.95;0.73;;;19.90;63.30;;;;;;20827307;28;20087;-59
2021/10/06 00:11:40;;;;;;;1.17;0.60;;;19.90;63.30;;;;;;20801950;28;20030;-59
2021/10/06 00:21:41;;;;;;;2.30;0.80;;;19.90;63.50;;;;;;20786288;28;20473;-59
2021/10/06 00:31:42;;;;;;;2.28;0.85;;;19.90;63.40;;;;;;20780248;28;20393;-59
2021/10/06 00:41:42;;;;;;;3.97;1.17;;;19.80;63.20;;;;;;20758081;28;20033;-59
2021/10/06 00:51:43;;;;;;;1.40;0.60;;;19.80;63.30;;;;;;20778463;28;20179;-59
2021/10/06 01:01:44;;;;;;;1.98;0.70;;;19.80;63.50;;;;;;20792147;28;20092;-59
2021/10/06 01:11:44;;;;;;;1.67;0.50;;;19.70;63.40;;;;;;20792656;28;20121;-59
2021/10/06 01:21:45;;;;;;;0.85;0.50;;;19.80;63.60;;;;;;20781885;28;20116;-59
2021/10/06 01:31:48;;;;;;;1.10;0.50;;;19.70;63.50;;;;;;20776130;28;20401;-59
2021/10/06 01:41:49;;;;;;;2.47;0.80;;;19.80;63.40;;;;;;20779577;28;20041;-59
2021/10/06 01:51:50;;;;;;;3.53;1.02;;;19.70;63.50;;;;;;20778146;28;20037;-58
2021/10/06 02:01:51;;;;;;;2.72;0.50;;;19.70;63.40;;;;;;20786669;28;20037;-59
2021/10/06 02:11:51;;;;;;;2.70;0.88;;;19.70;63.30;;;;;;20798453;28;20463;-59
2021/10/06 02:21:52;;;;;;;10.82;0.80;;;19.70;63.60;;;;;;20790248;28;20064;-59
2021/10/06 02:31:52;;;;;;;3.55;0.50;;;19.60;63.30;;;;;;20792675;28;20038;-59
2021/10/06 02:41:53;;;;;;;2.72;0.93;;;19.60;63.40;;;;;;20790556;28;20374;-59
2021/10/06 02:51:54;;;;;;;2.67;0.80;;;19.60;63.30;;;;;;20776336;28;20061;-59
2021/10/06 03:01:55;;;;;;;1.93;0.40;;;19.60;63.10;;;;;;20778147;28;20034;-59
2021/10/06 03:11:55;;;;;;;5.55;1.50;;;19.60;63.30;;;;;;20795339;28;20546;-59
2021/10/06 03:21:56;;;;;;;2.40;0.60;;;19.60;63.40;;;;;;20801318;28;20052;-58
2021/10/06 03:31:56;;;;;;;1.08;0.40;;;19.60;63.50;;;;;;20802783;28;20176;-59
2021/10/06 03:41:57;;;;;;;1.10;0.70;;;19.60;63.40;;;;;;20791574;28;20029;-59
2021/10/06 03:51:57;;;;;;;1.65;0.93;;;19.60;63.30;;;;;;20793332;28;20052;-57
2021/10/06 04:01:58;;;;;;;1.17;0.40;;;19.60;63.40;;;;;;20788653;28;20515;-59
2021/10/06 04:11:58;;;;;;;4.00;0.65;;;19.60;63.40;;;;;;20809539;28;20480;-58
2021/10/06 04:21:59;;;;;;;1.25;0.70;;;19.60;63.20;;;;;;20798431;28;20057;-59
2021/10/06 04:31:59;;;;;;;2.20;0.73;;;19.50;63.30;;;;;;20766589;28;20037;-58
2021/10/06 04:42:00;;;;;;;3.30;0.57;;;19.50;63.20;;;;;;20747121;28;20105;-58
2021/10/06 04:52:00;;;;;;;2.50;0.82;;;19.50;63.20;;;;;;20795700;28;20124;-59
2021/10/06 05:02:01;;;;;;;1.13;0.47;;;19.50;63.20;;;;;;20780678;28;20038;-59
2021/10/06 05:12:02;;;;;;;2.05;0.90;;;19.40;63.20;;;;;;20791463;28;20084;-59
2021/10/06 05:22:03;;;;;;;1.95;0.70;;;19.40;63.20;;;;;;20783899;28;20607;-58
2021/10/06 05:32:04;;;;;;;6.27;1.10;;;19.40;62.80;;;;;;20810494;28;20026;-60
2021/10/06 05:42:05;;;;;;;10.05;1.10;;;19.60;62.40;;;;;;20808395;28;20464;-58
2021/10/06 05:52:05;;;;;;;10.68;1.92;;;19.70;61.50;;;;;;20804729;28;20048;-60
2021/10/06 06:02:07;;;;;;;14.20;2.63;;;19.80;60.90;;;;;;20782203;28;20042;-60
2021/10/06 06:12:09;;;;;;;37.65;5.28;;;20.00;60.80;;;;;;20809973;28;20029;-58
2021/10/06 06:22:10;;;;;;;15.75;3.47;;;20.20;60.60;;;;;;20766893;28;20037;-55
2021/10/06 06:32:10;;;;;;;22.42;3.50;;;20.20;60.60;;;;;;20782946;28;20037;-56
2021/10/06 06:42:11;;;;;;;18.38;3.25;;;20.30;60.40;;;;;;20795725;28;20041;-56
2021/10/06 06:52:12;;;;;;;11.32;2.72;;;20.30;59.80;;;;;;20792200;28;20715;-58
2021/10/06 07:02:13;;;;;;;14.57;3.40;;;20.30;59.00;;;;;;20815148;28;20053;-59
2021/10/06 07:12:15;;;;;;;14.75;2.97;;;20.20;58.60;;;;;;20798255;28;20866;-58
2021/10/06 07:22:17;;;;;;;12.35;2.33;;;20.30;58.40;;;;;;20777618;28;20389;-54
2021/10/06 07:32:18;;;;;;;6.80;1.38;;;20.20;58.30;;;;;;20773090;28;20528;-58
2021/10/06 07:42:19;;;;;;;5.17;1.30;;;20.20;58.60;;;;;;20773238;28;20173;-56
2021/10/06 07:52:20;;;;;;;9.63;2.28;;;20.20;57.90;;;;;;20772069;28;20477;-57
2021/10/06 08:02:20;;;;;;;7.83;1.03;;;20.10;58.00;;;;;;20771248;28;20436;-57
2021/10/06 08:12:21;;;;;;;4.53;1.67;;;20.10;57.70;;;;;;20775468;28;20480;-57
2021/10/06 08:22:21;;;;;;;7.38;1.58;;;20.10;57.70;;;;;;20771171;28;20030;-51
2021/10/06 08:32:22;;;;;;;6.10;1.38;;;20.10;57.60;;;;;;20773274;28;20484;-57
2021/10/06 08:42:24;;;;;;;7.65;1.60;;;20.10;57.90;;;;;;20774507;28;20033;-54
2021/10/06 08:52:24;;;;;;;2.85;0.63;;;20.10;57.50;;;;;;20776191;28;20038;-56
2021/10/06 09:02:25;;;;;;;3.58;0.82;;;20.10;58.40;;;;;;20774201;28;20038;-53
2021/10/06 09:12:27;;;;;;;3.00;1.10;;;20.10;58.00;;;;;;20777709;28;20038;-55
2021/10/06 09:22:32;;;;;;;2.38;0.60;;;20.10;58.60;;;;;;20795437;28;20112;-56
2021/10/06 09:32:38;;;;;;;2.35;1.08;;;20.10;58.80;;;;;;20791272;28;20033;-55
2021/10/06 09:42:51;;;;;;;5.35;0.90;;;20.10;58.60;;;;;;20804053;28;20029;-51
2021/10/06 09:52:52;;;;;;;2.95;0.90;;;20.10;58.30;;;;;;20751783;28;20433;-55
2021/10/06 10:02:54;;;;;;;4.60;0.63;;;19.90;56.00;;;;;;20736762;28;20040;-55
2021/10/06 10:12:55;;;;;;;5.13;1.10;;;20.00;54.80;;;;;;20782522;28;20041;-53
2021/10/06 10:22:57;;;;;;;9.10;0.87;;;19.90;54.70;;;;;;20789787;28;20040;-57
2021/10/06 10:32:57;;;;;;;4.15;0.70;;;19.90;54.60;;;;;;20782163;28;20037;-53
2021/10/06 10:43:27;;;;;;;3.47;0.73;;;19.90;54.30;;;;;;20806120;28;20029;-54
2021/10/06 10:53:47;;;;;;;;;;;19.90;54.50;;;;;;20798018;28;20034;-56
2021/10/06 11:04:09;;;;;;;2.65;0.65;;;19.90;53.40;;;;;;20804759;28;19913;-52
2021/10/06 11:14:20;;;;;;;2.20;0.65;;;19.80;53.50;;;;;;20809028;28;20061;-54
2021/10/06 11:24:22;;;;;;;3.00;0.68;;;19.70;53.80;;;;;;20799217;28;20557;-56
2021/10/06 11:34:23;;;;;;;2.67;0.68;;;19.70;55.00;;;;;;20774121;28;20029;-56
2021/10/06 11:44:29;;;;;;;2.40;0.60;;;19.70;55.30;;;;;;20810678;28;20594;-56
2021/10/06 11:54:29;;;;;;;3.10;0.85;;;19.60;55.30;;;;;;20792605;28;20538;-55
2021/10/06 12:04:32;;;;;;;2.00;0.70;;;19.60;55.60;;;;;;20785062;28;20416;-57
2021/10/06 12:14:33;;;;;;;2.95;0.88;;;19.60;55.60;;;;;;20803608;28;20033;-57
2021/10/06 12:24:39;;;;;;;1.75;0.50;;;19.70;56.20;;;;;;20801276;28;20491;-58
2021/10/06 12:34:40;;;;;;;5.40;0.80;;;19.70;56.60;;;;;;20790897;28;20132;-56
2021/10/06 12:44:45;;;;;;;1.15;0.40;;;19.70;56.60;;;;;;20780245;28;20044;-57
2021/10/06 12:54:45;;;;;;;1.85;0.63;;;19.70;56.10;;;;;;20783420;28;20037;-57
2021/10/06 13:04:46;;;;;;;9.38;1.40;;;19.70;56.30;;;;;;20781979;28;20136;-57
2021/10/06 13:14:46;;;;;;;2.20;0.50;;;19.70;57.00;;;;;;20809607;28;20041;-56
2021/10/06 13:24:47;;;;;;;6.18;1.73;;;19.60;56.10;;;;;;20789948;28;20438;-56
2021/10/06 13:34:48;;;;;;;1.77;0.60;;;19.70;56.50;;;;;;20779764;28;20040;-57
2021/10/06 13:44:48;;;;;;;1.55;0.50;;;19.60;56.70;;;;;;20788267;28;20065;-57
2021/10/06 13:54:49;;;;;;;3.50;0.98;;;19.60;57.60;;;;;;20804164;28;20109;-55
2021/10/06 14:04:49;;;;;;;2.97;1.27;;;19.60;55.80;;;;;;20809904;28;20028;-58
2021/10/06 14:14:50;;;;;;;4.00;0.50;;;19.60;54.90;;;;;;20794586;28;20376;-58
2021/10/06 14:24:50;;;;;;;3.35;0.85;;;19.60;55.80;;;;;;20780531;28;20555;-55
2021/10/06 14:34:51;;;;;;;16.48;1.08;;;19.60;55.10;;;;;;20777833;28;20039;-57
2021/10/06 14:44:52;;;;;;;6.18;2.30;;;19.60;54.60;;;;;;20779952;28;20033;-57
2021/10/06 14:54:52;;;;;;;6.47;1.65;;;19.50;54.00;;;;;;20788478;28;20436;-58
2021/10/06 15:04:53;;;;;;;6.43;1.35;;;19.50;53.90;;;;;;20758723;28;20052;-56
2021/10/06 15:14:53;;;;;;;3.97;0.80;;;19.40;53.50;;;;;;20827519;28;20064;-57
2021/10/06 15:24:54;;;;;;;3.30;0.95;;;19.40;53.90;;;;;;20789312;28;20025;-57
2021/10/06 15:34:55;;;;;;;6.55;1.00;;;19.30;53.30;;;;;;20790765;28;20038;-55
2021/10/06 15:44:55;;;;;;;6.78;0.95;;;19.40;52.90;;;;;;20819136;28;20915;-56
2021/10/06 15:54:56;;;;;;;6.65;0.65;;;19.40;53.40;;;;;;20808008;28;20083;-57
2021/10/06 16:04:56;;;;;;;1.70;0.70;;;19.30;53.50;;;;;;20795342;28;20030;-58
2021/10/06 16:14:57;;;;;;;5.17;0.90;;;19.40;53.20;;;;;;20812117;28;20037;-57
2021/10/06 16:24:59;;;;;;;4.43;1.00;;;19.30;53.70;;;;;;20793379;28;20101;-57
2021/10/06 16:34:59;;;;;;;11.60;1.50;;;19.30;54.80;;;;;;20793724;28;20217;-59
2021/10/06 16:45:00;;;;;;;12.35;1.75;;;19.40;54.80;;;;;;20781949;28;20535;-58
2021/10/06 16:55:01;;;;;;;8.65;1.10;;;19.30;54.80;;;;;;20792726;28;20092;-56
2021/10/06 17:05:01;;;;;;;12.50;2.20;;;19.20;55.10;;;;;;20784543;28;20053;-56
2021/10/06 17:15:02;;;;;;;28.17;3.22;;;19.30;55.40;;;;;;20787729;28;20044;-59
2021/10/06 17:25:04;;;;;;;10.77;3.13;;;19.20;55.50;;;;;;20790165;28;20029;-55
2021/10/06 17:35:08;;;;;;;11.65;1.90;;;19.20;56.30;;;;;;20779637;28;20074;-54
2021/10/06 17:45:11;;;;;;;12.20;2.05;;;19.30;56.90;;;;;;20783720;28;20049;-54
2021/10/06 17:55:12;;;;;;;19.58;2.70;;;19.30;56.80;;;;;;20787050;28;20401;-55
2021/10/06 18:05:13;;;;;;;11.38;2.25;;;19.50;56.70;;;;;;20781183;28;20057;-54
2021/10/06 18:15:14;;;;;;;8.95;1.88;;;19.60;56.60;;;;;;20785354;28;20032;-58
2021/10/06 18:25:16;;;;;;;7.38;1.63;;;19.80;56.60;;;;;;20785081;28;20099;-56
2021/10/06 18:35:16;;;;;;;10.77;2.85;;;20.10;56.40;;;;;;20802002;28;20061;-54
2021/10/06 18:45:17;;;;;;;12.93;5.18;;;20.10;56.10;;;;;;20799297;28;20108;-60
2021/10/06 18:55:18;;;;;;;14.90;6.97;;;20.10;56.00;;;;;;20826226;28;20068;-59
2021/10/06 19:05:24;;;;;;;15.85;7.65;;;20.20;56.00;;;;;;20796442;28;20093;-59
2021/10/06 19:23:59;;;;;;;22.80;6.60;;;20.30;56.20;;;;;;21063504;27;20152;-56
2021/10/06 19:34:00;;;;;;;23.73;6.47;;;20.30;56.50;;;;;;20991210;27;20052;-60
2021/10/06 19:44:23;;;;;;;14.63;5.35;;;20.30;56.60;;;;;;20924285;28;20259;-56
2021/10/06 19:54:23;;;;;;;13.65;5.40;;;20.30;56.90;;;;;;20804994;28;20053;-58
2021/10/06 20:04:24;;;;;;;20.52;5.53;;;20.30;56.90;;;;;;20795519;28;20033;-53
2021/10/06 20:14:24;;;;;;;9.10;4.90;;;20.30;57.10;;;;;;20802716;28;20063;-55
2021/10/06 20:24:25;;;;;;;17.17;6.25;;;20.30;57.40;;;;;;20813316;28;20094;-56
2021/10/06 20:44:29;;;;;;;11.57;5.78;;;20.20;57.80;;;;;;20887702;28;20029;-58
2021/10/06 20:54:30;;;;;;;13.18;5.40;;;20.20;57.80;;;;;;20840056;28;20094;-57
2021/10/06 21:04:31;;;;;;;11.80;4.55;;;20.20;58.40;;;;;;20828230;28;20629;-56
2021/10/06 21:14:31;;;;;;;8.87;4.20;;;20.20;58.70;;;;;;20809683;28;20048;-55
2021/10/06 21:24:33;;;;;;;10.48;4.90;;;20.10;58.90;;;;;;20831038;28;20575;-56
2021/10/06 21:34:34;;;;;;;13.38;3.90;;;20.10;59.10;;;;;;20820297;28;20032;-55
2021/10/06 21:44:35;;;;;;;9.75;4.05;;;20.00;59.30;;;;;;20846695;28;20020;-58
2021/10/06 21:54:35;;;;;;;9.30;3.47;;;20.00;59.40;;;;;;20852164;28;20672;-59
2021/10/06 22:04:36;;;;;;;5.70;3.08;;;20.00;59.50;;;;;;20846239;28;20020;-59
2021/10/06 22:14:39;;;;;;;8.30;3.80;;;20.00;59.50;;;;;;20850602;28;20672;-54
2021/10/06 22:24:40;;;;;;;11.70;3.20;;;19.90;59.40;;;;;;20852827;28;20044;-58
2021/10/06 22:34:40;;;;;;;6.72;3.28;;;19.90;59.50;;;;;;20841326;28;20488;-58
2021/10/06 22:44:41;;;;;;;4.95;3.20;;;19.90;59.40;;;;;;20846911;28;20391;-57
2021/10/06 22:54:41;;;;;;;7.50;2.70;;;19.80;59.50;;;;;;20850677;28;20056;-58
2021/10/06 23:04:42;;;;;;;4.07;2.60;;;19.70;59.50;;;;;;20841624;28;20472;-57
2021/10/06 23:14:42;;;;;;;4.50;2.63;;;19.70;59.70;;;;;;20845080;28;20394;-58
2021/10/06 23:24:43;;;;;;;5.90;2.03;;;19.70;59.70;;;;;;20847474;28;20725;-58
2021/10/06 23:34:45;;;;;;;2.92;1.85;;;19.70;59.70;;;;;;20836424;28;20108;-59
2021/10/06 23:44:46;;;;;;;3.92;1.75;;;19.60;59.70;;;;;;20841599;28;20029;-59
2021/10/06 23:54:47;;;;;;;4.47;2.05;;;19.60;59.80;;;;;;20846062;28;20099;-53
